Time;durP1;ratioP1;P1;durP2;ratioP2;P2;SDS_P1;SDS_P2;PMS_P1;PMS_P2;Temp;Humidity;BMP_temperature;BMP_pressure;BME280_temperature;BME280_humidity;BME280_pressure;Samples;Min_cycle;Max_cycle;Signal;HPM_P1;HPM_P2
2023/05/24 00:02:16;;;;;;;;;;;;;;;14.48;100.00;98869.76;109558;1251;58985;-70
2023/05/24 00:04:44;;;;;;;;;;;;;;;14.48;100.00;98872.15;109627;1251;58966;-72
2023/05/24 00:07:12;;;;;;;;;;;;;;;14.51;100.00;98873.38;109505;1251;74640;-70
2023/05/24 00:09:39;;;;;;;;;;;;;;;14.56;99.70;98869.33;109548;1254;66289;-71
2023/05/24 00:12:07;;;;;;;;;;;;;;;14.62;98.64;98872.23;109528;1251;70649;-71
2023/05/24 00:14:34;;;;;;;;;;;;;;;14.69;99.00;98867.27;109560;1254;58969;-71
2023/05/24 00:17:01;;;;;;;;;;;;;;;14.72;99.92;98872.28;109581;1251;59855;-71
2023/05/24 00:19:28;;;;;;;;;;;;;;;14.71;99.96;98874.01;109524;1251;74739;-72
2023/05/24 00:21:56;;;;;;;;;;;;;;;14.66;100.00;98877.73;109514;1253;66296;-71
2023/05/24 00:24:23;;;;;;;;;;;;;;;14.60;100.00;98878.16;109561;1251;72783;-73
2023/05/24 00:26:50;;;;;;;;;;;;;;;14.58;100.00;98874.67;109561;1251;59336;-72
2023/05/24 00:29:17;;;;;;;;;;;;;;;14.58;100.00;98876.56;109493;1254;58854;-73
2023/05/24 00:31:45;;;;;;;;;;;;;;;14.57;100.00;98871.88;109506;1251;74665;-71
2023/05/24 00:34:12;;;;;;;;;;;;;;;14.55;100.00;98872.01;109428;1251;67609;-72
2023/05/24 00:36:39;;;;;;;;;;;;;;;14.50;100.00;98869.75;109585;1251;71747;-71
2023/05/24 00:39:08;;;;;;;;;;;;;;;14.43;100.00;98866.42;109577;1251;59103;-71
2023/05/24 00:41:35;;;;;;;;;;;;;;;14.37;100.00;98868.80;109465;1251;58948;-72
2023/05/24 00:44:02;;;;;;;;;;;;;;;14.30;100.00;98865.78;109620;1251;74732;-71
2023/05/24 00:46:30;;;;;;;;;;;;;;;14.22;100.00;98865.20;109399;1251;66308;-71
2023/05/24 00:48:59;;;;;;;;;;;;;;;14.10;100.00;98866.70;109409;1251;71576;-70
2023/05/24 00:51:30;;;;;;;;;;;;;;;13.92;100.00;98868.81;109596;1254;58991;-71
2023/05/24 00:53:58;;;;;;;;;;;;;;;13.74;100.00;98869.67;109492;1252;59116;-71
2023/05/24 00:56:26;;;;;;;;;;;;;;;13.60;100.00;98868.34;109440;1251;74650;-70
2023/05/24 00:58:54;;;;;;;;;;;;;;;13.51;100.00;98866.86;109459;1251;66436;-70
2023/05/24 01:01:24;;;;;;;;;;;;;;;13.45;100.00;98865.37;109267;1253;72678;-70
2023/05/24 01:03:52;;;;;;;;;;;;;;;13.41;100.00;98860.69;109447;1254;60175;-70
2023/05/24 01:06:20;;;;;;;;;;;;;;;13.38;100.00;98861.48;109568;1253;58852;-69
2023/05/24 01:09:07;;;;;;;;;;;;;;;13.33;100.00;98857.52;109458;1251;202671;-71
2023/05/24 01:11:57;;;;;;;;;;;;;;;13.25;100.00;98861.38;109595;1251;67826;-71
2023/05/24 01:14:28;;;;;;;;;;;;;;;13.18;100.00;98862.64;109516;1251;71869;-72
2023/05/24 01:17:05;;;;;;;;;;;;;;;13.10;100.00;98863.23;109323;1254;60077;-72
2023/05/24 01:19:33;;;;;;;;;;;;;;;13.03;100.00;98865.43;109409;1259;59856;-70
2023/05/24 01:22:03;;;;;;;;;;;;;;;12.97;100.00;98864.51;109600;1251;75283;-71
2023/05/24 01:24:36;;;;;;;;;;;;;;;12.93;100.00;98864.25;109486;1251;66824;-70
2023/05/24 01:27:11;;;;;;;;;;;;;;;12.87;100.00;98868.83;109479;1254;72665;-70
2023/05/24 01:29:38;;;;;;;;;;;;;;;12.81;100.00;98868.10;109419;1254;60159;-68
2023/05/24 01:32:05;;;;;;;;;;;;;;;12.79;100.00;98871.10;109429;1252;58993;-70
2023/05/24 01:34:33;;;;;;;;;;;;;;;12.73;100.00;98875.25;109618;1254;74611;-71
2023/05/24 01:37:00;;;;;;;;;;;;;;;12.65;100.00;98872.71;109542;1251;67909;-70
2023/05/24 01:39:28;;;;;;;;;;;;;;;12.58;100.00;98874.13;109558;1251;71798;-71
2023/05/24 01:42:08;;;;;;;;;;;;;;;12.51;100.00;98871.48;109455;1253;59086;-70
2023/05/24 01:44:55;;;;;;;;;;;;;;;12.44;100.00;98875.46;109378;1253;59746;-70
2023/05/24 01:47:35;;;;;;;;;;;;;;;12.42;100.00;98876.15;109290;1251;75128;-70
2023/05/24 01:50:06;;;;;;;;;;;;;;;12.38;100.00;98878.55;109346;1251;67937;-71
2023/05/24 01:52:33;;;;;;;;;;;;;;;12.32;100.00;98877.13;109257;1253;71634;-70
2023/05/24 01:55:01;;;;;;;;;;;;;;;12.31;100.00;98879.38;109438;1253;58986;-71
2023/05/24 01:57:29;;;;;;;;;;;;;;;12.35;100.00;98878.00;109484;1253;60262;-72
2023/05/24 01:59:56;;;;;;;;;;;;;;;12.39;100.00;98877.13;109470;1251;74624;-71
2023/05/24 02:02:23;;;;;;;;;;;;;;;12.42;100.00;98877.30;109213;1251;67709;-71
2023/05/24 02:04:51;;;;;;;;;;;;;;;12.46;100.00;98878.31;109608;1251;71786;-69
2023/05/24 02:07:18;;;;;;;;;;;;;;;12.50;100.00;98870.46;109456;1251;60545;-70
2023/05/24 02:09:45;;;;;;;;;;;;;;;12.55;100.00;98869.75;109419;1252;59787;-71
2023/05/24 02:12:12;;;;;;;;;;;;;;;12.60;100.00;98868.95;109538;1251;74670;-71
2023/05/24 02:14:41;;;;;;;;;;;;;;;12.62;100.00;98869.54;109355;1251;66331;-70
2023/05/24 02:17:09;;;;;;;;;;;;;;;12.64;100.00;98869.67;109158;1253;72665;-70
2023/05/24 02:19:36;;;;;;;;;;;;;;;12.66;100.00;98867.79;109364;1252;59411;-70
2023/05/24 02:22:06;;;;;;;;;;;;;;;12.62;100.00;98870.23;109428;1253;58925;-70
2023/05/24 02:24:33;;;;;;;;;;;;;;;12.54;100.00;98875.11;109417;1253;74608;-70
2023/05/24 02:27:01;;;;;;;;;;;;;;;12.38;100.00;98874.90;109263;1254;67703;-69
2023/05/24 02:29:29;;;;;;;;;;;;;;;12.24;100.00;98877.27;109480;1253;72775;-71
2023/05/24 02:31:56;;;;;;;;;;;;;;;12.13;100.00;98880.19;109580;1252;60114;-70
2023/05/24 02:34:23;;;;;;;;;;;;;;;12.00;100.00;98886.09;109516;1253;59730;-70
2023/05/24 02:36:53;;;;;;;;;;;;;;;11.91;100.00;98888.85;109459;1251;73329;-72
2023/05/24 02:39:20;;;;;;;;;;;;;;;11.84;100.00;98889.98;109605;1251;67445;-71
2023/05/24 02:41:47;;;;;;;;;;;;;;;11.82;100.00;98889.80;109586;1251;72700;-72
2023/05/24 02:44:15;;;;;;;;;;;;;;;11.87;100.00;98891.31;109490;1253;58885;-72
2023/05/24 02:46:42;;;;;;;;;;;;;;;11.93;100.00;98890.75;109575;1251;60031;-71
2023/05/24 02:49:09;;;;;;;;;;;;;;;11.99;100.00;98892.64;109547;1251;74635;-70
2023/05/24 02:51:37;;;;;;;;;;;;;;;12.05;100.00;98894.16;109561;1251;66450;-72
2023/05/24 02:54:04;;;;;;;;;;;;;;;12.11;100.00;98896.02;109356;1251;71430;-72
2023/05/24 02:56:31;;;;;;;;;;;;;;;12.17;100.00;98895.49;109566;1251;59274;-70
2023/05/24 02:58:59;;;;;;;;;;;;;;;12.16;100.00;98896.67;109559;1253;58877;-73
2023/05/24 03:01:28;;;;;;;;;;;;;;;12.13;100.00;98894.02;109383;1251;73459;-72
2023/05/24 03:03:56;;;;;;;;;;;;;;;12.13;100.00;98897.25;109470;1251;67507;-70
2023/05/24 03:06:24;;;;;;;;;;;;;;;12.16;100.00;98892.65;109555;1253;71036;-71
2023/05/24 03:08:51;;;;;;;;;;;;;;;12.22;100.00;98890.71;109597;1251;60463;-69
2023/05/24 03:11:22;;;;;;;;;;;;;;;12.34;100.00;98890.23;109480;1251;58897;-70
2023/05/24 03:13:50;;;;;;;;;;;;;;;12.50;100.00;98893.06;109523;1251;74626;-72
2023/05/24 03:16:18;;;;;;;;;;;;;;;12.69;100.00;98891.48;109515;1253;68201;-71
2023/05/24 03:18:49;;;;;;;;;;;;;;;12.93;100.00;98890.62;109424;1254;72725;-72
2023/05/24 03:21:19;;;;;;;;;;;;;;;13.20;100.00;98894.40;109517;1253;60376;-71
2023/05/24 03:23:47;;;;;;;;;;;;;;;13.49;100.00;98889.54;109439;1251;59791;-70
2023/05/24 03:26:14;;;;;;;;;;;;;;;13.79;100.00;98889.91;109432;1253;74746;-74
2023/05/24 03:28:42;;;;;;;;;;;;;;;14.09;100.00;98888.35;109451;1253;66292;-71
2023/05/24 03:31:09;;;;;;;;;;;;;;;14.39;100.00;98892.86;109405;1253;71419;-72
2023/05/24 03:33:37;;;;;;;;;;;;;;;14.67;100.00;98890.25;109393;1254;58983;-71
2023/05/24 03:36:05;;;;;;;;;;;;;;;14.94;100.00;98889.87;109407;1252;59820;-70
2023/05/24 03:38:33;;;;;;;;;;;;;;;15.24;100.00;98892.29;109418;1256;74667;-71
2023/05/24 03:41:00;;;;;;;;;;;;;;;15.54;100.00;98890.27;109426;1253;67698;-68
2023/05/24 03:43:28;;;;;;;;;;;;;;;15.82;100.00;98895.24;109439;1251;72665;-72
2023/05/24 03:45:58;;;;;;;;;;;;;;;16.11;100.00;98893.53;109487;1254;60119;-71
2023/05/24 03:48:25;;;;;;;;;;;;;;;16.40;100.00;98891.49;109525;1251;60275;-71
2023/05/24 03:50:52;;;;;;;;;;;;;;;16.67;100.00;98888.43;109595;1251;74600;-71
2023/05/24 03:53:20;;;;;;;;;;;;;;;16.98;100.00;98891.71;109443;1254;67667;-70
2023/05/24 03:55:49;;;;;;;;;;;;;;;17.31;100.00;98889.64;109622;1251;71445;-70
2023/05/24 03:58:17;;;;;;;;;;;;;;;17.63;100.00;98882.12;109410;1253;58919;-71
2023/05/24 04:00:44;;;;;;;;;;;;;;;17.96;100.00;98885.65;109427;1254;59002;-71
2023/05/24 04:03:12;;;;;;;;;;;;;;;18.30;100.00;98885.80;109421;1251;72956;-71
2023/05/24 04:05:39;;;;;;;;;;;;;;;18.67;100.00;98886.53;109385;1251;66465;-71
2023/05/24 04:08:07;;;;;;;;;;;;;;;19.00;100.00;98888.90;109565;1251;72679;-71
2023/05/24 04:10:36;;;;;;;;;;;;;;;19.28;100.00;98893.37;109430;1256;58884;-71
2023/05/24 04:13:03;;;;;;;;;;;;;;;19.56;100.00;98891.06;109539;1253;59797;-70
2023/05/24 04:15:34;;;;;;;;;;;;;;;19.84;100.00;98890.80;109458;1251;73263;-70
2023/05/24 04:18:02;;;;;;;;;;;;;;;20.20;100.00;98891.95;109562;1254;67286;-70
2023/05/24 04:20:29;;;;;;;;;;;;;;;20.63;99.56;98892.06;109561;1251;71061;-71
2023/05/24 04:22:57;;;;;;;;;;;;;;;21.03;96.17;98891.25;109648;1251;58926;-70
2023/05/24 04:25:25;;;;;;;;;;;;;;;21.36;89.38;98891.63;109540;1251;59812;-72
2023/05/24 04:27:54;;;;;;;;;;;;;;;21.58;86.07;98893.75;109491;1251;74762;-71
2023/05/24 04:30:23;;;;;;;;;;;;;;;21.77;83.74;98895.95;109443;1255;68108;-71
2023/05/24 04:32:52;;;;;;;;;;;;;;;22.02;82.48;98896.20;109460;1251;72717;-71
2023/05/24 04:35:20;;;;;;;;;;;;;;;22.38;82.14;98895.67;109396;1253;60147;-71
2023/05/24 04:37:49;;;;;;;;;;;;;;;22.82;78.50;98897.88;109499;1251;58906;-71
2023/05/24 04:40:19;;;;;;;;;;;;;;;23.24;74.84;98900.36;109445;1251;76222;-69
2023/05/24 04:42:46;;;;;;;;;;;;;;;23.66;72.22;98897.84;109577;1252;68755;-71
2023/05/24 04:45:14;;;;;;;;;;;;;;;24.02;70.33;98893.60;109456;1251;72710;-69
2023/05/24 04:47:41;;;;;;;;;;;;;;;24.38;66.23;98892.63;109490;1253;60048;-70
2023/05/24 04:50:08;;;;;;;;;;;;;;;24.69;59.85;98891.87;109536;1251;59819;-69
2023/05/24 04:52:36;;;;;;;;;;;;;;;25.03;56.32;98889.95;109506;1251;73459;-72
2023/05/24 04:55:03;;;;;;;;;;;;;;;25.35;54.78;98891.83;109527;1251;67659;-70
2023/05/24 04:57:31;;;;;;;;;;;;;;;25.63;54.68;98897.63;109471;1252;71696;-71
2023/05/24 04:59:58;;;;;;;;;;;;;;;25.94;53.45;98893.77;109453;1252;58955;-69
2023/05/24 05:02:25;;;;;;;;;;;;;;;26.21;51.19;98893.97;109399;1253;59995;-68
2023/05/24 05:04:53;;;;;;;;;;;;;;;26.50;50.43;98895.66;109390;1253;74699;-69
2023/05/24 05:07:21;;;;;;;;;;;;;;;26.76;49.70;98894.16;109460;1253;66619;-68
2023/05/24 05:09:48;;;;;;;;;;;;;;;27.02;50.51;98892.41;109529;1253;72632;-69
2023/05/24 05:12:15;;;;;;;;;;;;;;;27.26;48.56;98894.95;109532;1253;59211;-72
2023/05/24 05:14:43;;;;;;;;;;;;;;;27.47;48.17;98896.06;109481;1252;60202;-70
2023/05/24 05:17:10;;;;;;;;;;;;;;;27.75;47.03;98897.80;109548;1252;73447;-70
2023/05/24 05:19:37;;;;;;;;;;;;;;;28.03;45.78;98900.39;109475;1253;67730;-70
2023/05/24 05:22:05;;;;;;;;;;;;;;;28.33;44.39;98897.89;109448;1253;71394;-69
2023/05/24 05:24:32;;;;;;;;;;;;;;;28.65;43.21;98901.16;109517;1253;58906;-71
2023/05/24 05:26:59;;;;;;;;;;;;;;;28.94;42.25;98898.44;109470;1253;59008;-70
2023/05/24 05:29:27;;;;;;;;;;;;;;;29.17;41.47;98898.31;109471;1253;73417;-69
2023/05/24 05:31:54;;;;;;;;;;;;;;;29.37;40.40;98895.79;109448;1253;67715;-70
2023/05/24 05:34:21;;;;;;;;;;;;;;;29.58;40.05;98893.99;109482;1253;72605;-70
2023/05/24 05:36:49;;;;;;;;;;;;;;;29.84;36.84;98889.65;109485;1253;60122;-68
2023/05/24 05:39:16;;;;;;;;;;;;;;;29.99;35.38;98891.70;109519;1252;59923;-69
2023/05/24 05:41:44;;;;;;;;;;;;;;;30.05;33.42;98893.10;109476;1253;74962;-68
2023/05/24 05:44:13;;;;;;;;;;;;;;;30.05;32.75;98894.48;109464;1253;66348;-70
2023/05/24 05:46:42;;;;;;;;;;;;;;;30.01;31.67;98894.70;109438;1252;72761;-71
2023/05/24 05:49:14;;;;;;;;;;;;;;;29.98;32.06;98898.42;109544;1253;60020;-70
2023/05/24 05:51:41;;;;;;;;;;;;;;;30.11;31.94;98897.93;109535;1252;59928;-70
2023/05/24 05:54:13;;;;;;;;;;;;;;;30.29;31.85;98898.14;109447;1253;73445;-70
2023/05/24 05:56:44;;;;;;;;;;;;;;;30.55;31.73;98894.63;109454;1253;67688;-70
2023/05/24 05:59:11;;;;;;;;;;;;;;;30.82;31.87;98894.33;109471;1253;72878;-68
2023/05/24 06:01:39;;;;;;;;;;;;;;;31.08;31.29;98895.75;109455;1253;60055;-68
2023/05/24 06:04:07;;;;;;;;;;;;;;;31.32;31.21;98897.26;109499;1253;61917;-71
2023/05/24 06:06:34;;;;;;;;;;;;;;;31.58;29.98;98898.48;109411;1253;74772;-70
2023/05/24 06:09:02;;;;;;;;;;;;;;;31.72;30.43;98903.18;109437;1253;67632;-68
2023/05/24 06:11:29;;;;;;;;;;;;;;;31.92;31.10;98903.84;109357;1253;72636;-70
2023/05/24 06:13:57;;;;;;;;;;;;;;;32.15;30.55;98905.58;109439;1253;58971;-69
2023/05/24 06:16:24;;;;;;;;;;;;;;;32.32;29.87;98909.86;109408;1252;58987;-72
2023/05/24 06:18:51;;;;;;;;;;;;;;;32.40;29.56;98911.30;109437;1253;73446;-71
2023/05/24 06:21:31;;;;;;;;;;;;;;;32.52;28.73;98911.30;109524;1253;67821;-70
2023/05/24 06:24:01;;;;;;;;;;;;;;;32.60;28.28;98909.83;109491;1253;71889;-68
2023/05/24 06:26:29;;;;;;;;;;;;;;;32.71;28.50;98906.23;109383;1253;61499;-70
2023/05/24 06:28:56;;;;;;;;;;;;;;;32.94;27.73;98907.73;109470;1253;60098;-70
2023/05/24 06:31:23;;;;;;;;;;;;;;;33.04;27.86;98911.09;109541;1252;74661;-67
2023/05/24 06:33:51;;;;;;;;;;;;;;;33.18;28.38;98906.86;109546;1252;66592;-71
2023/05/24 06:36:41;;;;;;;;;;;;;;;33.49;27.49;98907.10;109528;1253;71455;-71
2023/05/24 06:39:09;;;;;;;;;;;;;;;33.59;25.46;98906.13;109477;1253;60041;-69
2023/05/24 06:41:37;;;;;;;;;;;;;;;33.67;26.04;98903.90;109541;1253;58888;-70
2023/05/24 06:44:05;;;;;;;;;;;;;;;33.87;25.81;98900.16;109523;1253;73745;-68
2023/05/24 06:46:33;;;;;;;;;;;;;;;34.01;24.56;98899.83;109398;1253;69799;-67
2023/05/24 06:49:00;;;;;;;;;;;;;;;34.09;23.49;98905.06;109384;1253;71450;-68
2023/05/24 06:51:28;;;;;;;;;;;;;;;34.11;22.93;98902.90;109457;1252;60294;-68
2023/05/24 06:53:55;;;;;;;;;;;;;;;34.16;23.22;98903.42;109438;1253;59243;-68
2023/05/24 06:56:22;;;;;;;;;;;;;;;34.24;23.22;98907.14;109415;1251;74752;-68
2023/05/24 06:58:50;;;;;;;;;;;;;;;34.33;23.58;98908.94;109405;1253;68347;-69
2023/05/24 07:01:17;;;;;;;;;;;;;;;34.59;23.96;98909.86;109509;1253;70579;-69
2023/05/24 07:03:44;;;;;;;;;;;;;;;34.96;23.74;98907.20;109427;1253;60046;-68
2023/05/24 07:06:13;;;;;;;;;;;;;;;35.26;21.90;98904.67;109446;1252;60713;-69
2023/05/24 07:08:41;;;;;;;;;;;;;;;35.31;20.48;98906.48;109446;1252;74734;-68
2023/05/24 07:11:08;;;;;;;;;;;;;;;35.26;20.98;98904.98;109518;1254;70272;-69
2023/05/24 07:13:35;;;;;;;;;;;;;;;35.15;20.87;98906.69;109429;1253;71829;-69
2023/05/24 07:16:03;;;;;;;;;;;;;;;35.10;20.91;98908.19;109533;1253;60118;-68
2023/05/24 07:18:30;;;;;;;;;;;;;;;35.08;21.15;98911.35;109545;1253;60825;-70
2023/05/24 07:20:58;;;;;;;;;;;;;;;35.23;21.53;98909.02;109429;1251;75842;-69
2023/05/24 07:23:25;;;;;;;;;;;;;;;35.55;21.31;98910.40;109387;1252;67623;-71
2023/05/24 07:25:53;;;;;;;;;;;;;;;35.83;20.60;98913.20;109547;1251;72636;-72
2023/05/24 07:28:20;;;;;;;;;;;;;;;35.85;18.67;98913.27;109424;1253;58907;-71
2023/05/24 07:30:48;;;;;;;;;;;;;;;35.44;18.29;98912.69;109606;1252;59803;-71
2023/05/24 07:33:15;;;;;;;;;;;;;;;34.88;18.64;98920.69;109413;1252;74204;-70
2023/05/24 07:35:44;;;;;;;;;;;;;;;34.36;18.99;98918.98;109611;1251;67665;-70
2023/05/24 07:38:12;;;;;;;;;;;;;;;33.88;19.71;98919.50;109465;1253;72701;-66
2023/05/24 07:40:39;;;;;;;;;;;;;;;33.66;19.85;98924.59;109502;1253;61676;-69
2023/05/24 07:43:07;;;;;;;;;;;;;;;33.64;20.24;98931.45;109462;1252;60221;-69
2023/05/24 07:45:34;;;;;;;;;;;;;;;33.79;20.79;98931.39;109535;1253;74669;-68
2023/05/24 07:48:01;;;;;;;;;;;;;;;34.04;20.74;98935.45;109553;1253;66186;-67
2023/05/24 07:50:28;;;;;;;;;;;;;;;34.26;20.61;98935.38;109416;1252;73377;-68
2023/05/24 07:52:56;;;;;;;;;;;;;;;34.46;20.09;98932.41;109480;1253;60060;-69
2023/05/24 07:55:23;;;;;;;;;;;;;;;34.70;20.17;98937.18;109558;1251;58903;-69
2023/05/24 07:57:50;;;;;;;;;;;;;;;34.92;19.39;98935.27;109504;1251;73444;-69
2023/05/24 08:00:18;;;;;;;;;;;;;;;34.98;19.03;98932.23;109568;1251;67586;-69
2023/05/24 08:02:46;;;;;;;;;;;;;;;34.94;19.15;98931.53;109569;1251;72640;-67
2023/05/24 08:05:13;;;;;;;;;;;;;;;34.61;19.33;98935.83;109540;1253;60119;-68
2023/05/24 08:07:41;;;;;;;;;;;;;;;34.12;19.98;98934.39;109550;1251;59739;-69
2023/05/24 08:10:09;;;;;;;;;;;;;;;33.61;19.94;98944.44;109430;1253;73801;-69
2023/05/24 08:12:36;;;;;;;;;;;;;;;33.02;20.47;98951.15;109493;1253;66697;-70
2023/05/24 08:15:04;;;;;;;;;;;;;;;32.55;20.09;98955.63;109516;1251;72715;-70
2023/05/24 08:17:31;;;;;;;;;;;;;;;31.99;20.35;98950.32;109465;1253;60043;-69
2023/05/24 08:19:58;;;;;;;;;;;;;;;31.58;21.09;98951.42;109537;1252;59932;-71
2023/05/24 08:22:26;;;;;;;;;;;;;;;31.38;21.60;98947.59;109483;1251;74574;-71
2023/05/24 08:24:54;;;;;;;;;;;;;;;31.20;21.43;98952.44;109550;1253;67906;-69
2023/05/24 08:27:21;;;;;;;;;;;;;;;30.66;21.71;98947.01;109561;1251;73164;-67
2023/05/24 08:29:48;;;;;;;;;;;;;;;30.05;22.46;98954.08;109517;1253;60048;-67
2023/05/24 08:32:16;;;;;;;;;;;;;;;29.46;22.79;98956.58;109445;1252;59733;-64
2023/05/24 08:34:44;;;;;;;;;;;;;;;29.13;22.85;98955.39;109474;1252;75084;-66
2023/05/24 08:37:14;;;;;;;;;;;;;;;29.03;23.31;98957.30;109441;1254;67555;-67
2023/05/24 08:39:42;;;;;;;;;;;;;;;29.12;23.71;98954.54;109513;1252;72635;-69
2023/05/24 08:42:09;;;;;;;;;;;;;;;29.54;23.91;98958.70;109404;1253;58906;-67
2023/05/24 08:44:40;;;;;;;;;;;;;;;30.21;23.38;98952.61;109476;1252;59949;-59
2023/05/24 08:47:07;;;;;;;;;;;;;;;30.63;22.64;98956.27;109550;1253;73411;-67
2023/05/24 08:49:36;;;;;;;;;;;;;;;30.68;22.54;98957.79;109354;1251;68198;-65
2023/05/24 08:52:03;;;;;;;;;;;;;;;30.43;22.23;98951.44;109474;1253;72204;-65
2023/05/24 08:54:30;;;;;;;;;;;;;;;30.12;22.62;98948.16;109404;1254;59047;-66
2023/05/24 08:56:58;;;;;;;;;;;;;;;30.13;22.63;98952.03;109460;1252;59992;-64
2023/05/24 08:59:25;;;;;;;;;;;;;;;30.41;22.59;98955.74;109581;1252;74047;-64
2023/05/24 09:01:53;;;;;;;;;;;;;;;30.79;22.21;98953.58;109496;1252;67862;-65
2023/05/24 09:04:20;;;;;;;;;;;;;;;31.17;22.17;98953.17;109469;1253;72461;-64
2023/05/24 09:06:49;;;;;;;;;;;;;;;31.66;22.22;98948.41;109286;1253;60170;-64
2023/05/24 09:09:17;;;;;;;;;;;;;;;32.27;21.64;98952.23;109254;1253;59822;-65
2023/05/24 09:11:44;;;;;;;;;;;;;;;32.56;20.96;98952.92;109408;1254;75121;-66
2023/05/24 09:14:12;;;;;;;;;;;;;;;32.64;21.21;98950.31;109402;1253;67567;-65
2023/05/24 09:16:40;;;;;;;;;;;;;;;32.76;21.55;98951.08;109369;1253;72665;-64
2023/05/24 09:19:07;;;;;;;;;;;;;;;32.84;21.39;98960.70;109454;1253;59535;-65
2023/05/24 09:21:35;;;;;;;;;;;;;;;32.56;20.66;98964.34;109570;1253;59774;-65
2023/05/24 09:24:05;;;;;;;;;;;;;;;31.85;21.07;98968.73;109486;1252;73391;-65
2023/05/24 09:26:34;;;;;;;;;;;;;;;31.05;21.60;98974.88;109475;1253;67829;-64
2023/05/24 09:29:05;;;;;;;;;;;;;;;30.21;22.12;98973.45;109535;1253;73187;-63
2023/05/24 09:31:33;;;;;;;;;;;;;;;29.59;23.00;98979.96;109534;1253;58839;-64
2023/05/24 09:34:00;;;;;;;;;;;;;;;29.12;23.73;98982.25;109583;1254;59800;-65
2023/05/24 09:36:28;;;;;;;;;;;;;;;28.72;24.56;98980.40;109529;1252;73484;-65
2023/05/24 09:39:07;;;;;;;;;;;;;;;28.29;25.03;98982.46;109632;1251;70582;-65
2023/05/24 09:41:36;;;;;;;;;;;;;;;27.80;25.78;98980.36;109425;1254;72532;-65
2023/05/24 09:44:03;;;;;;;;;;;;;;;27.55;26.36;98981.69;109575;1252;60165;-65
2023/05/24 09:46:39;;;;;;;;;;;;;;;27.65;26.03;98976.42;109498;1253;59880;-65
2023/05/24 09:49:07;;;;;;;;;;;;;;;27.86;26.61;98979.64;109598;1253;73422;-65
2023/05/24 09:51:37;;;;;;;;;;;;;;;27.82;26.33;98977.61;109597;1253;67587;-64
2023/05/24 09:54:05;;;;;;;;;;;;;;;27.80;26.55;98973.55;109559;1252;72776;-66
2023/05/24 09:56:33;;;;;;;;;;;;;;;28.13;26.92;98977.06;109556;1254;58936;-66
2023/05/24 09:59:07;;;;;;;;;;;;;;;28.52;26.47;98980.63;109572;1254;58996;-65
2023/05/24 10:01:34;;;;;;;;;;;;;;;28.54;26.21;98983.88;109639;1253;74658;-63
2023/05/24 10:04:05;;;;;;;;;;;;;;;28.44;26.66;98983.23;109546;1252;66595;-65
2023/05/24 10:06:37;;;;;;;;;;;;;;;28.58;27.00;98980.27;109559;1253;72719;-64
2023/05/24 10:09:08;;;;;;;;;;;;;;;29.06;26.55;98977.20;109533;1253;60057;-65
2023/05/24 10:11:36;;;;;;;;;;;;;;;29.93;26.18;98974.85;109558;1253;59001;-64
2023/05/24 10:14:04;;;;;;;;;;;;;;;30.89;24.90;98970.42;109470;1253;73401;-67
2023/05/24 10:16:32;;;;;;;;;;;;;;;31.86;23.93;98968.37;109648;1251;68053;-64
2023/05/24 10:18:59;;;;;;;;;;;;;;;32.67;23.10;98965.65;109537;1252;72709;-64
2023/05/24 10:21:27;;;;;;;;;;;;;;;33.57;22.29;98968.65;109592;1253;59013;-64
2023/05/24 10:23:56;;;;;;;;;;;;;;;34.46;21.65;98961.14;109567;1252;58961;-65
2023/05/24 10:26:25;;;;;;;;;;;;;;;35.19;20.52;98961.77;109437;1252;73413;-65
2023/05/24 10:28:53;;;;;;;;;;;;;;;35.69;20.19;98960.11;109590;1252;67597;-63
2023/05/24 10:31:22;;;;;;;;;;;;;;;35.97;19.81;98957.20;109390;1253;70720;-64
2023/05/24 10:33:50;;;;;;;;;;;;;;;35.99;19.98;98952.73;109457;1252;59223;-64
2023/05/24 10:36:18;;;;;;;;;;;;;;;35.87;19.88;98961.16;109562;1253;59777;-64
2023/05/24 10:38:45;;;;;;;;;;;;;;;35.36;19.93;98961.95;109410;1253;73371;-66
2023/05/24 10:41:13;;;;;;;;;;;;;;;34.59;20.74;98967.36;109501;1254;67781;-63
2023/05/24 10:43:40;;;;;;;;;;;;;;;34.10;21.07;98972.35;109512;1252;71486;-64
2023/05/24 10:46:08;;;;;;;;;;;;;;;33.81;21.60;98972.16;109488;1254;60076;-64
2023/05/24 10:48:37;;;;;;;;;;;;;;;33.56;21.94;98974.76;109584;1252;59715;-63
2023/05/24 10:51:23;;;;;;;;;;;;;;;33.31;22.07;98973.09;109511;1254;73322;-64
2023/05/24 10:53:50;;;;;;;;;;;;;;;33.02;22.72;98972.94;109521;1252;68647;-64
2023/05/24 10:56:19;;;;;;;;;;;;;;;32.79;23.05;98971.08;109547;1251;72038;-64
2023/05/24 10:58:53;;;;;;;;;;;;;;;32.64;23.14;98966.51;109564;1253;60528;-64
2023/05/24 11:01:30;;;;;;;;;;;;;;;32.60;23.45;98967.04;109577;1253;59817;-64
2023/05/24 11:04:08;;;;;;;;;;;;;;;32.54;23.35;98966.35;109513;1251;74657;-64
2023/05/24 11:06:54;;;;;;;;;;;;;;;32.29;23.37;98967.69;109619;1251;66309;-64
2023/05/24 11:09:22;;;;;;;;;;;;;;;32.11;23.45;98962.02;109413;1254;71418;-65
2023/05/24 11:11:54;;;;;;;;;;;;;;;31.92;23.22;98959.52;109468;1253;60112;-65
2023/05/24 11:14:23;;;;;;;;;;;;;;;31.64;23.61;98956.83;109580;1252;59902;-65
2023/05/24 11:16:50;;;;;;;;;;;;;;;31.41;24.06;98954.26;109498;1254;73361;-64
2023/05/24 11:19:18;;;;;;;;;;;;;;;31.29;24.48;98957.60;109571;1251;67604;-65
2023/05/24 11:21:46;;;;;;;;;;;;;;;31.12;24.77;98951.98;109566;1251;72463;-65
2023/05/24 11:24:17;;;;;;;;;;;;;;;30.93;25.07;98951.21;109552;1254;60044;-63
2023/05/24 11:26:45;;;;;;;;;;;;;;;30.78;25.28;98953.66;109618;1254;59956;-65
2023/05/24 11:29:16;;;;;;;;;;;;;;;30.66;25.06;98955.85;109561;1253;73353;-64
2023/05/24 11:31:51;;;;;;;;;;;;;;;30.48;25.37;98952.29;109622;1253;67636;-64
2023/05/24 11:34:19;;;;;;;;;;;;;;;30.33;25.15;98956.23;109528;1254;71789;-65
2023/05/24 11:36:46;;;;;;;;;;;;;;;30.15;25.46;98954.11;109556;1253;60178;-64
2023/05/24 11:39:14;;;;;;;;;;;;;;;29.93;25.99;98952.83;109582;1254;58949;-65
2023/05/24 11:41:41;;;;;;;;;;;;;;;29.69;26.44;98952.51;109436;1251;73361;-67
2023/05/24 11:44:08;;;;;;;;;;;;;;;29.62;26.47;98959.59;109402;1252;68255;-65
2023/05/24 11:46:38;;;;;;;;;;;;;;;29.55;25.98;98955.51;109390;1251;72674;-73
2023/05/24 11:49:05;;;;;;;;;;;;;;;29.36;26.18;98953.14;109476;1254;58862;-64
2023/05/24 11:51:33;;;;;;;;;;;;;;;29.29;27.16;98953.14;109556;1252;58881;-64
2023/05/24 11:54:00;;;;;;;;;;;;;;;29.29;27.31;98951.44;109626;1251;74660;-64
2023/05/24 11:56:28;;;;;;;;;;;;;;;29.27;26.81;98955.14;109641;1254;67866;-71
2023/05/24 11:59:04;;;;;;;;;;;;;;;29.13;26.95;98950.95;109444;1251;72692;-66
2023/05/24 12:01:32;;;;;;;;;;;;;;;29.06;27.13;98951.66;109435;1253;60051;-66
2023/05/24 12:03:59;;;;;;;;;;;;;;;28.96;26.78;98949.88;109385;1252;58986;-66
2023/05/24 12:06:40;;;;;;;;;;;;;;;28.88;27.05;98948.33;109489;1254;74608;-65
2023/05/24 12:09:09;;;;;;;;;;;;;;;28.84;27.77;98944.27;109397;1252;66374;-66
2023/05/24 12:11:43;;;;;;;;;;;;;;;28.81;27.88;98944.02;109303;1253;71435;-64
2023/05/24 12:14:11;;;;;;;;;;;;;;;28.76;27.56;98943.18;109535;1252;59171;-67
2023/05/24 12:16:39;;;;;;;;;;;;;;;28.70;27.99;98942.63;109372;1253;59053;-73
2023/05/24 12:19:06;;;;;;;;;;;;;;;28.73;28.31;98943.05;109574;1253;74699;-70
2023/05/24 12:21:46;;;;;;;;;;;;;;;28.71;27.89;98945.02;109533;1251;67918;-72
2023/05/24 12:24:15;;;;;;;;;;;;;;;28.63;28.05;98940.85;109429;1254;71889;-63
2023/05/24 12:26:43;;;;;;;;;;;;;;;28.57;28.31;98937.09;109468;1251;59185;-64
2023/05/24 12:29:11;;;;;;;;;;;;;;;28.48;28.61;98939.77;109500;1253;59812;-67
2023/05/24 12:31:41;;;;;;;;;;;;;;;28.39;28.42;98935.48;109496;1251;74642;-72
2023/05/24 12:34:13;;;;;;;;;;;;;;;28.34;29.43;98937.82;109448;1251;66839;-67
2023/05/24 12:36:41;;;;;;;;;;;;;;;28.28;29.07;98931.58;109529;1253;71419;-72
2023/05/24 12:39:18;;;;;;;;;;;;;;;28.00;28.73;98928.80;109526;1257;60105;-69
2023/05/24 12:41:49;;;;;;;;;;;;;;;27.72;28.87;98928.30;109512;1251;59867;-69